sensor_id;sensor_type;location;lat;lon;timestamp;P1;durP1;ratioP1;P2;durP2;ratioP2
21360;SDS011;10839;43.206;23.550;2022-11-20T00:01:33;20.25;;;9.98;;
21360;SDS011;10839;43.206;23.550;2022-11-20T00:03:59;16.30;;;9.23;;
21360;SDS011;10839;43.206;23.550;2022-11-20T00:06:26;16.48;;;9.02;;
21360;SDS011;10839;43.206;23.550;2022-11-20T00:08:57;15.93;;;9.20;;
21360;SDS011;10839;43.206;23.550;2022-11-20T00:11:26;17.13;;;9.77;;
21360;SDS011;10839;43.206;23.550;2022-11-20T00:13:54;17.95;;;10.65;;
21360;SDS011;10839;43.206;23.550;2022-11-20T00:16:23;16.13;;;9.70;;
21360;SDS011;10839;43.206;23.550;2022-11-20T00:18:51;16.88;;;10.00;;
21360;SDS011;10839;43.206;23.550;2022-11-20T00:21:18;17.48;;;9.45;;
21360;SDS011;10839;43.206;23.550;2022-11-20T00:23:46;16.98;;;8.90;;
21360;SDS011;10839;43.206;23.550;2022-11-20T00:26:13;18.23;;;9.73;;
21360;SDS011;10839;43.206;23.550;2022-11-20T00:28:41;17.80;;;9.98;;
21360;SDS011;10839;43.206;23.550;2022-11-20T00:31:11;19.73;;;9.70;;
21360;SDS011;10839;43.206;23.550;2022-11-20T00:33:41;18.80;;;10.15;;
21360;SDS011;10839;43.206;23.550;2022-11-20T00:36:13;18.42;;;9.63;;
21360;SDS011;10839;43.206;23.550;2022-11-20T00:38:44;16.08;;;9.18;;
21360;SDS011;10839;43.206;23.550;2022-11-20T00:41:11;15.98;;;9.55;;
21360;SDS011;10839;43.206;23.550;2022-11-20T00:43:41;16.85;;;9.00;;
21360;SDS011;10839;43.206;23.550;2022-11-20T00:46:15;15.90;;;8.98;;
21360;SDS011;10839;43.206;23.550;2022-11-20T00:48:43;16.92;;;9.73;;
21360;SDS011;10839;43.206;23.550;2022-11-20T00:51:11;18.48;;;10.57;;
21360;SDS011;10839;43.206;23.550;2022-11-20T00:53:38;17.55;;;9.88;;
21360;SDS011;10839;43.206;23.550;2022-11-20T00:56:06;18.30;;;10.32;;
21360;SDS011;10839;43.206;23.550;2022-11-20T00:58:36;18.45;;;10.85;;
21360;SDS011;10839;43.206;23.550;2022-11-20T01:03:32;17.80;;;10.30;;
21360;SDS011;10839;43.206;23.550;2022-11-20T01:06:02;19.00;;;10.38;;
21360;SDS011;10839;43.206;23.550;2022-11-20T01:08:30;20.38;;;10.38;;
21360;SDS011;10839;43.206;23.550;2022-11-20T01:11:05;16.52;;;10.07;;
21360;SDS011;10839;43.206;23.550;2022-11-20T01:13:33;19.73;;;10.30;;
21360;SDS011;10839;43.206;23.550;2022-11-20T01:16:07;19.70;;;10.60;;
21360;SDS011;10839;43.206;23.550;2022-11-20T01:18:40;18.70;;;10.55;;
21360;SDS011;10839;43.206;23.550;2022-11-20T01:21:09;17.75;;;10.40;;
21360;SDS011;10839;43.206;23.550;2022-11-20T01:23:38;17.90;;;10.50;;
21360;SDS011;10839;43.206;23.550;2022-11-20T01:26:10;17.50;;;10.18;;
21360;SDS011;10839;43.206;23.550;2022-11-20T01:28:38;24.60;;;13.25;;
21360;SDS011;10839;43.206;23.550;2022-11-20T01:31:12;25.15;;;13.48;;
21360;SDS011;10839;43.206;23.550;2022-11-20T01:33:51;24.88;;;13.00;;
21360;SDS011;10839;43.206;23.550;2022-11-20T01:36:19;26.30;;;11.98;;
21360;SDS011;10839;43.206;23.550;2022-11-20T01:38:47;21.85;;;11.60;;
21360;SDS011;10839;43.206;23.550;2022-11-20T01:41:13;28.27;;;11.77;;
21360;SDS011;10839;43.206;23.550;2022-11-20T01:44:01;32.53;;;12.40;;
21360;SDS011;10839;43.206;23.550;2022-11-20T01:46:28;22.67;;;11.57;;
21360;SDS011;10839;43.206;23.550;2022-11-20T01:48:56;37.80;;;10.98;;
21360;SDS011;10839;43.206;23.550;2022-11-20T01:51:48;46.25;;;12.48;;
21360;SDS011;10839;43.206;23.550;2022-11-20T01:54:19;27.65;;;11.90;;
21360;SDS011;10839;43.206;23.550;2022-11-20T01:56:50;34.83;;;10.13;;
21360;SDS011;10839;43.206;23.550;2022-11-20T01:59:20;25.27;;;10.25;;
21360;SDS011;10839;43.206;23.550;2022-11-20T02:01:49;49.28;;;11.35;;
21360;SDS011;10839;43.206;23.550;2022-11-20T02:04:15;31.50;;;11.63;;
21360;SDS011;10839;43.206;23.550;2022-11-20T02:07:04;47.00;;;12.05;;
21360;SDS011;10839;43.206;23.550;2022-11-20T02:09:33;27.50;;;11.70;;
21360;SDS011;10839;43.206;23.550;2022-11-20T02:11:59;21.73;;;11.30;;
21360;SDS011;10839;43.206;23.550;2022-11-20T02:14:26;27.35;;;11.68;;
21360;SDS011;10839;43.206;23.550;2022-11-20T02:16:53;20.30;;;11.48;;
21360;SDS011;10839;43.206;23.550;2022-11-20T02:24:38;28.77;;;14.30;;
21360;SDS011;10839;43.206;23.550;2022-11-20T02:27:07;44.45;;;13.35;;
21360;SDS011;10839;43.206;23.550;2022-11-20T02:29:44;29.73;;;12.88;;
21360;SDS011;10839;43.206;23.550;2022-11-20T02:32:22;24.85;;;13.55;;
21360;SDS011;10839;43.206;23.550;2022-11-20T02:34:49;29.80;;;13.30;;
21360;SDS011;10839;43.206;23.550;2022-11-20T02:37:16;45.47;;;13.38;;
21360;SDS011;10839;43.206;23.550;2022-11-20T02:39:44;28.15;;;13.07;;
21360;SDS011;10839;43.206;23.550;2022-11-20T02:42:14;73.30;;;14.50;;
21360;SDS011;10839;43.206;23.550;2022-11-20T02:44:41;43.83;;;13.73;;
21360;SDS011;10839;43.206;23.550;2022-11-20T02:47:07;43.17;;;14.00;;
21360;SDS011;10839;43.206;23.550;2022-11-20T02:49:33;48.35;;;14.20;;
21360;SDS011;10839;43.206;23.550;2022-11-20T02:52:00;52.65;;;23.17;;
21360;SDS011;10839;43.206;23.550;2022-11-20T02:54:26;69.40;;;20.85;;
21360;SDS011;10839;43.206;23.550;2022-11-20T02:56:52;39.97;;;17.05;;
21360;SDS011;10839;43.206;23.550;2022-11-20T02:59:18;46.47;;;22.45;;
21360;SDS011;10839;43.206;23.550;2022-11-20T03:01:44;76.95;;;18.42;;
21360;SDS011;10839;43.206;23.550;2022-11-20T03:04:10;47.08;;;16.08;;
21360;SDS011;10839;43.206;23.550;2022-11-20T03:06:36;53.80;;;15.55;;
21360;SDS011;10839;43.206;23.550;2022-11-20T03:09:02;31.30;;;13.98;;
21360;SDS011;10839;43.206;23.550;2022-11-20T03:11:28;34.25;;;14.07;;
21360;SDS011;10839;43.206;23.550;2022-11-20T03:13:54;22.38;;;11.45;;
21360;SDS011;10839;43.206;23.550;2022-11-20T03:16:21;26.08;;;13.77;;
21360;SDS011;10839;43.206;23.550;2022-11-20T03:18:48;27.52;;;13.13;;
21360;SDS011;10839;43.206;23.550;2022-11-20T03:21:15;27.88;;;13.88;;
21360;SDS011;10839;43.206;23.550;2022-11-20T03:23:42;25.30;;;12.60;;
21360;SDS011;10839;43.206;23.550;2022-11-20T03:26:15;47.85;;;22.98;;
21360;SDS011;10839;43.206;23.550;2022-11-20T03:28:49;57.13;;;27.65;;
21360;SDS011;10839;43.206;23.550;2022-11-20T03:31:22;37.85;;;18.05;;
21360;SDS011;10839;43.206;23.550;2022-11-20T03:33:50;28.40;;;12.23;;
21360;SDS011;10839;43.206;23.550;2022-11-20T03:36:17;26.52;;;12.98;;
21360;SDS011;10839;43.206;23.550;2022-11-20T03:38:44;22.35;;;11.45;;
21360;SDS011;10839;43.206;23.550;2022-11-20T03:41:12;26.35;;;12.77;;
21360;SDS011;10839;43.206;23.550;2022-11-20T03:43:57;32.58;;;15.52;;
21360;SDS011;10839;43.206;23.550;2022-11-20T03:46:25;85.45;;;41.78;;
21360;SDS011;10839;43.206;23.550;2022-11-20T03:48:52;73.70;;;34.10;;
21360;SDS011;10839;43.206;23.550;2022-11-20T03:53:52;35.63;;;16.58;;
21360;SDS011;10839;43.206;23.550;2022-11-20T03:56:23;34.75;;;16.08;;
21360;SDS011;10839;43.206;23.550;2022-11-20T03:58:51;36.13;;;15.95;;
21360;SDS011;10839;43.206;23.550;2022-11-20T04:01:17;35.22;;;15.40;;
21360;SDS011;10839;43.206;23.550;2022-11-20T04:03:46;37.63;;;17.05;;
21360;SDS011;10839;43.206;23.550;2022-11-20T04:06:17;38.80;;;16.73;;
21360;SDS011;10839;43.206;23.550;2022-11-20T04:08:44;36.25;;;16.00;;
21360;SDS011;10839;43.206;23.550;2022-11-20T04:11:11;37.13;;;16.35;;
21360;SDS011;10839;43.206;23.550;2022-11-20T04:13:40;36.67;;;15.90;;
21360;SDS011;10839;43.206;23.550;2022-11-20T04:16:08;46.88;;;21.02;;
21360;SDS011;10839;43.206;23.550;2022-11-20T04:18:35;38.42;;;17.83;;
21360;SDS011;10839;43.206;23.550;2022-11-20T04:21:02;41.30;;;18.23;;
21360;SDS011;10839;43.206;23.550;2022-11-20T04:23:30;46.53;;;19.83;;
21360;SDS011;10839;43.206;23.550;2022-11-20T04:26:06;38.55;;;17.15;;
21360;SDS011;10839;43.206;23.550;2022-11-20T04:28:34;31.83;;;14.75;;
21360;SDS011;10839;43.206;23.550;2022-11-20T04:31:04;35.67;;;16.38;;
21360;SDS011;10839;43.206;23.550;2022-11-20T04:36:05;35.97;;;15.65;;
21360;SDS011;10839;43.206;23.550;2022-11-20T04:38:33;32.35;;;15.50;;
21360;SDS011;10839;43.206;23.550;2022-11-20T04:41:00;33.30;;;15.60;;
21360;SDS011;10839;43.206;23.550;2022-11-20T04:43:28;33.67;;;15.73;;
21360;SDS011;10839;43.206;23.550;2022-11-20T04:45:55;35.03;;;15.13;;
21360;SDS011;10839;43.206;23.550;2022-11-20T04:48:22;33.45;;;15.55;;
21360;SDS011;10839;43.206;23.550;2022-11-20T04:50:49;31.60;;;15.45;;
21360;SDS011;10839;43.206;23.550;2022-11-20T04:53:15;32.55;;;16.30;;
21360;SDS011;10839;43.206;23.550;2022-11-20T04:55:41;32.40;;;15.55;;
21360;SDS011;10839;43.206;23.550;2022-11-20T04:58:07;32.38;;;16.00;;
21360;SDS011;10839;43.206;23.550;2022-11-20T05:00:33;30.38;;;14.93;;
21360;SDS011;10839;43.206;23.550;2022-11-20T05:05:35;42.75;;;22.50;;
21360;SDS011;10839;43.206;23.550;2022-11-20T05:08:02;38.00;;;18.77;;
21360;SDS011;10839;43.206;23.550;2022-11-20T05:10:28;33.05;;;17.27;;
21360;SDS011;10839;43.206;23.550;2022-11-20T05:15:28;29.13;;;15.32;;
21360;SDS011;10839;43.206;23.550;2022-11-20T05:17:55;30.73;;;14.75;;
21360;SDS011;10839;43.206;23.550;2022-11-20T05:20:21;22.98;;;12.10;;
21360;SDS011;10839;43.206;23.550;2022-11-20T05:22:47;21.77;;;12.02;;
21360;SDS011;10839;43.206;23.550;2022-11-20T05:25:13;23.33;;;11.10;;
21360;SDS011;10839;43.206;23.550;2022-11-20T05:27:39;17.25;;;9.40;;
21360;SDS011;10839;43.206;23.550;2022-11-20T05:30:05;19.17;;;10.40;;
21360;SDS011;10839;43.206;23.550;2022-11-20T05:32:32;19.08;;;10.32;;
21360;SDS011;10839;43.206;23.550;2022-11-20T05:34:58;24.85;;;12.90;;
21360;SDS011;10839;43.206;23.550;2022-11-20T05:37:25;24.63;;;14.55;;
21360;SDS011;10839;43.206;23.550;2022-11-20T05:39:51;28.70;;;16.10;;
21360;SDS011;10839;43.206;23.550;2022-11-20T05:42:17;26.02;;;15.68;;
21360;SDS011;10839;43.206;23.550;2022-11-20T05:44:56;27.55;;;15.43;;
21360;SDS011;10839;43.206;23.550;2022-11-20T05:58:39;32.72;;;20.58;;
21360;SDS011;10839;43.206;23.550;2022-11-20T06:03:57;43.50;;;21.42;;
21360;SDS011;10839;43.206;23.550;2022-11-20T06:09:11;31.15;;;18.02;;
21360;SDS011;10839;43.206;23.550;2022-11-20T06:14:12;36.13;;;16.60;;
21360;SDS011;10839;43.206;23.550;2022-11-20T06:16:39;28.85;;;16.40;;
21360;SDS011;10839;43.206;23.550;2022-11-20T06:19:05;45.13;;;25.17;;
21360;SDS011;10839;43.206;23.550;2022-11-20T06:21:31;41.10;;;22.88;;
21360;SDS011;10839;43.206;23.550;2022-11-20T06:26:39;142.35;;;69.50;;
21360;SDS011;10839;43.206;23.550;2022-11-20T06:31:54;30.70;;;17.80;;
21360;SDS011;10839;43.206;23.550;2022-11-20T06:36:57;29.75;;;16.88;;
21360;SDS011;10839;43.206;23.550;2022-11-20T06:39:23;28.25;;;16.15;;
21360;SDS011;10839;43.206;23.550;2022-11-20T06:44:16;27.10;;;15.80;;
21360;SDS011;10839;43.206;23.550;2022-11-20T06:46:42;24.23;;;13.88;;
21360;SDS011;10839;43.206;23.550;2022-11-20T06:49:08;23.98;;;13.40;;
21360;SDS011;10839;43.206;23.550;2022-11-20T06:51:34;27.10;;;13.68;;
21360;SDS011;10839;43.206;23.550;2022-11-20T06:54:01;25.70;;;14.35;;
21360;SDS011;10839;43.206;23.550;2022-11-20T06:56:27;18.02;;;10.30;;
21360;SDS011;10839;43.206;23.550;2022-11-20T06:58:53;14.27;;;9.65;;
21360;SDS011;10839;43.206;23.550;2022-11-20T07:01:19;17.65;;;10.60;;
21360;SDS011;10839;43.206;23.550;2022-11-20T07:03:48;21.05;;;10.95;;
21360;SDS011;10839;43.206;23.550;2022-11-20T07:06:15;26.25;;;15.10;;
21360;SDS011;10839;43.206;23.550;2022-11-20T07:08:41;24.55;;;14.93;;
21360;SDS011;10839;43.206;23.550;2022-11-20T07:11:07;21.13;;;11.52;;
21360;SDS011;10839;43.206;23.550;2022-11-20T07:13:37;18.95;;;11.55;;
21360;SDS011;10839;43.206;23.550;2022-11-20T07:16:04;26.63;;;14.77;;
21360;SDS011;10839;43.206;23.550;2022-11-20T07:18:32;22.95;;;13.80;;
21360;SDS011;10839;43.206;23.550;2022-11-20T07:21:06;27.17;;;15.40;;
21360;SDS011;10839;43.206;23.550;2022-11-20T07:23:34;27.15;;;14.90;;
21360;SDS011;10839;43.206;23.550;2022-11-20T07:26:07;17.30;;;9.40;;
21360;SDS011;10839;43.206;23.550;2022-11-20T07:28:35;18.67;;;10.13;;
21360;SDS011;10839;43.206;23.550;2022-11-20T07:31:02;19.23;;;10.15;;
21360;SDS011;10839;43.206;23.550;2022-11-20T07:33:34;25.83;;;15.05;;
21360;SDS011;10839;43.206;23.550;2022-11-20T07:38:36;28.95;;;15.82;;
21360;SDS011;10839;43.206;23.550;2022-11-20T07:41:03;30.15;;;17.45;;
21360;SDS011;10839;43.206;23.550;2022-11-20T07:43:30;28.92;;;16.92;;
21360;SDS011;10839;43.206;23.550;2022-11-20T07:45:56;36.80;;;18.48;;
21360;SDS011;10839;43.206;23.550;2022-11-20T07:48:24;32.38;;;17.20;;
21360;SDS011;10839;43.206;23.550;2022-11-20T07:50:54;33.38;;;18.02;;
21360;SDS011;10839;43.206;23.550;2022-11-20T07:56:00;28.27;;;15.68;;
21360;SDS011;10839;43.206;23.550;2022-11-20T07:58:31;33.28;;;16.08;;
21360;SDS011;10839;43.206;23.550;2022-11-20T08:01:03;35.17;;;16.77;;
21360;SDS011;10839;43.206;23.550;2022-11-20T08:03:31;34.28;;;17.38;;
21360;SDS011;10839;43.206;23.550;2022-11-20T08:06:00;31.23;;;16.40;;
21360;SDS011;10839;43.206;23.550;2022-11-20T08:08:27;28.75;;;14.95;;
21360;SDS011;10839;43.206;23.550;2022-11-20T08:10:57;29.05;;;15.27;;
21360;SDS011;10839;43.206;23.550;2022-11-20T08:13:42;30.10;;;16.73;;
21360;SDS011;10839;43.206;23.550;2022-11-20T08:16:27;29.17;;;17.65;;
21360;SDS011;10839;43.206;23.550;2022-11-20T08:18:53;30.73;;;16.58;;
21360;SDS011;10839;43.206;23.550;2022-11-20T08:21:19;31.83;;;17.00;;
21360;SDS011;10839;43.206;23.550;2022-11-20T08:23:55;35.35;;;18.00;;
21360;SDS011;10839;43.206;23.550;2022-11-20T08:26:22;31.10;;;16.58;;
21360;SDS011;10839;43.206;23.550;2022-11-20T08:28:48;35.72;;;17.38;;
21360;SDS011;10839;43.206;23.550;2022-11-20T08:31:15;28.55;;;15.63;;
21360;SDS011;10839;43.206;23.550;2022-11-20T08:33:41;34.05;;;17.45;;
21360;SDS011;10839;43.206;23.550;2022-11-20T08:36:07;33.58;;;16.33;;
21360;SDS011;10839;43.206;23.550;2022-11-20T08:38:33;29.95;;;15.55;;
21360;SDS011;10839;43.206;23.550;2022-11-20T08:41:00;29.77;;;16.77;;
21360;SDS011;10839;43.206;23.550;2022-11-20T08:43:46;30.83;;;16.10;;
21360;SDS011;10839;43.206;23.550;2022-11-20T08:46:12;34.80;;;19.27;;
21360;SDS011;10839;43.206;23.550;2022-11-20T08:48:38;34.30;;;19.17;;
21360;SDS011;10839;43.206;23.550;2022-11-20T08:51:04;36.75;;;19.30;;
21360;SDS011;10839;43.206;23.550;2022-11-20T08:53:30;35.33;;;18.13;;
21360;SDS011;10839;43.206;23.550;2022-11-20T08:55:57;32.70;;;18.50;;
21360;SDS011;10839;43.206;23.550;2022-11-20T09:00:58;31.65;;;17.20;;
21360;SDS011;10839;43.206;23.550;2022-11-20T09:03:25;28.90;;;16.13;;
21360;SDS011;10839;43.206;23.550;2022-11-20T09:05:56;29.73;;;16.13;;
21360;SDS011;10839;43.206;23.550;2022-11-20T09:08:27;24.13;;;14.60;;
21360;SDS011;10839;43.206;23.550;2022-11-20T09:10:55;28.13;;;15.07;;
21360;SDS011;10839;43.206;23.550;2022-11-20T09:13:22;25.05;;;14.57;;
21360;SDS011;10839;43.206;23.550;2022-11-20T09:15:53;24.38;;;13.52;;
21360;SDS011;10839;43.206;23.550;2022-11-20T09:18:23;23.85;;;14.60;;
21360;SDS011;10839;43.206;23.550;2022-11-20T09:20:50;23.48;;;13.43;;
21360;SDS011;10839;43.206;23.550;2022-11-20T09:23:16;23.27;;;12.95;;
21360;SDS011;10839;43.206;23.550;2022-11-20T09:25:43;23.30;;;13.90;;
21360;SDS011;10839;43.206;23.550;2022-11-20T09:28:09;22.20;;;13.18;;
21360;SDS011;10839;43.206;23.550;2022-11-20T09:30:35;24.27;;;14.02;;
21360;SDS011;10839;43.206;23.550;2022-11-20T09:33:03;24.63;;;15.55;;
21360;SDS011;10839;43.206;23.550;2022-11-20T09:35:30;26.48;;;16.02;;
21360;SDS011;10839;43.206;23.550;2022-11-20T09:37:56;29.23;;;17.50;;
21360;SDS011;10839;43.206;23.550;2022-11-20T09:40:24;33.97;;;19.08;;
21360;SDS011;10839;43.206;23.550;2022-11-20T09:43:12;25.25;;;14.52;;
21360;SDS011;10839;43.206;23.550;2022-11-20T09:48:36;27.42;;;15.27;;
21360;SDS011;10839;43.206;23.550;2022-11-20T09:56:47;25.77;;;14.05;;
21360;SDS011;10839;43.206;23.550;2022-11-20T09:59:23;21.80;;;13.15;;
21360;SDS011;10839;43.206;23.550;2022-11-20T10:02:03;23.77;;;12.88;;
21360;SDS011;10839;43.206;23.550;2022-11-20T10:04:53;24.67;;;14.40;;
21360;SDS011;10839;43.206;23.550;2022-11-20T10:07:30;26.83;;;14.40;;
21360;SDS011;10839;43.206;23.550;2022-11-20T10:10:03;26.60;;;15.27;;
21360;SDS011;10839;43.206;23.550;2022-11-20T10:15:25;24.23;;;15.30;;
21360;SDS011;10839;43.206;23.550;2022-11-20T10:21:36;28.13;;;14.63;;
21360;SDS011;10839;43.206;23.550;2022-11-20T10:29:41;23.15;;;12.93;;
21360;SDS011;10839;43.206;23.550;2022-11-20T10:32:16;20.17;;;11.25;;
21360;SDS011;10839;43.206;23.550;2022-11-20T10:34:57;19.77;;;11.70;;
21360;SDS011;10839;43.206;23.550;2022-11-20T10:37:28;19.85;;;12.27;;
21360;SDS011;10839;43.206;23.550;2022-11-20T10:42:31;19.88;;;11.32;;
21360;SDS011;10839;43.206;23.550;2022-11-20T10:47:45;19.13;;;11.70;;
21360;SDS011;10839;43.206;23.550;2022-11-20T10:50:14;20.58;;;12.13;;
21360;SDS011;10839;43.206;23.550;2022-11-20T11:01:05;24.80;;;14.00;;
21360;SDS011;10839;43.206;23.550;2022-11-20T11:03:39;19.80;;;13.05;;
21360;SDS011;10839;43.206;23.550;2022-11-20T11:08:39;21.08;;;13.32;;
21360;SDS011;10839;43.206;23.550;2022-11-20T11:13:49;30.23;;;15.35;;
21360;SDS011;10839;43.206;23.550;2022-11-20T11:16:19;28.77;;;15.43;;
21360;SDS011;10839;43.206;23.550;2022-11-20T11:18:51;25.15;;;14.50;;
21360;SDS011;10839;43.206;23.550;2022-11-20T11:21:28;26.70;;;16.75;;
21360;SDS011;10839;43.206;23.550;2022-11-20T11:24:02;29.48;;;17.17;;
21360;SDS011;10839;43.206;23.550;2022-11-20T11:26:29;36.10;;;22.05;;
21360;SDS011;10839;43.206;23.550;2022-11-20T11:29:03;36.10;;;18.58;;
21360;SDS011;10839;43.206;23.550;2022-11-20T11:31:30;30.17;;;18.20;;
21360;SDS011;10839;43.206;23.550;2022-11-20T11:34:11;33.33;;;19.35;;
21360;SDS011;10839;43.206;23.550;2022-11-20T11:36:38;28.45;;;17.10;;
21360;SDS011;10839;43.206;23.550;2022-11-20T11:39:05;23.00;;;15.50;;
21360;SDS011;10839;43.206;23.550;2022-11-20T11:41:39;25.58;;;15.75;;
21360;SDS011;10839;43.206;23.550;2022-11-20T11:44:19;26.23;;;15.90;;
21360;SDS011;10839;43.206;23.550;2022-11-20T11:47:04;24.40;;;14.80;;
21360;SDS011;10839;43.206;23.550;2022-11-20T11:49:35;21.45;;;13.35;;
21360;SDS011;10839;43.206;23.550;2022-11-20T12:00:04;22.05;;;12.70;;
21360;SDS011;10839;43.206;23.550;2022-11-20T12:02:36;22.40;;;13.48;;
21360;SDS011;10839;43.206;23.550;2022-11-20T12:05:09;17.80;;;11.38;;
21360;SDS011;10839;43.206;23.550;2022-11-20T12:07:46;17.30;;;10.48;;
21360;SDS011;10839;43.206;23.550;2022-11-20T12:15:44;12.93;;;8.40;;
21360;SDS011;10839;43.206;23.550;2022-11-20T12:18:14;12.57;;;7.68;;
21360;SDS011;10839;43.206;23.550;2022-11-20T12:20:46;21.85;;;12.63;;
21360;SDS011;10839;43.206;23.550;2022-11-20T12:38:23;12.25;;;6.35;;
21360;SDS011;10839;43.206;23.550;2022-11-20T12:40:56;10.23;;;6.25;;
21360;SDS011;10839;43.206;23.550;2022-11-20T12:44:01;11.85;;;7.60;;
21360;SDS011;10839;43.206;23.550;2022-11-20T12:46:51;9.35;;;6.47;;
21360;SDS011;10839;43.206;23.550;2022-11-20T12:49:41;8.02;;;4.30;;
21360;SDS011;10839;43.206;23.550;2022-11-20T12:55:16;13.68;;;8.75;;
21360;SDS011;10839;43.206;23.550;2022-11-20T13:00:35;9.93;;;6.07;;
21360;SDS011;10839;43.206;23.550;2022-11-20T13:05:46;5.07;;;4.07;;
21360;SDS011;10839;43.206;23.550;2022-11-20T13:11:17;9.30;;;6.28;;
21360;SDS011;10839;43.206;23.550;2022-11-20T13:16:36;21.52;;;13.27;;
21360;SDS011;10839;43.206;23.550;2022-11-20T13:19:04;14.77;;;9.45;;
21360;SDS011;10839;43.206;23.550;2022-11-20T13:21:41;16.75;;;9.88;;
21360;SDS011;10839;43.206;23.550;2022-11-20T13:29:28;21.52;;;9.70;;
21360;SDS011;10839;43.206;23.550;2022-11-20T13:35:02;14.70;;;7.22;;
21360;SDS011;10839;43.206;23.550;2022-11-20T13:37:33;26.42;;;13.27;;
21360;SDS011;10839;43.206;23.550;2022-11-20T13:42:43;44.92;;;25.42;;
21360;SDS011;10839;43.206;23.550;2022-11-20T13:45:25;16.40;;;11.57;;
21360;SDS011;10839;43.206;23.550;2022-11-20T13:47:52;15.95;;;10.60;;
21360;SDS011;10839;43.206;23.550;2022-11-20T13:50:19;11.77;;;7.50;;
21360;SDS011;10839;43.206;23.550;2022-11-20T13:52:59;10.85;;;7.20;;
21360;SDS011;10839;43.206;23.550;2022-11-20T13:55:54;10.25;;;5.95;;
21360;SDS011;10839;43.206;23.550;2022-11-20T14:01:23;6.82;;;5.07;;
21360;SDS011;10839;43.206;23.550;2022-11-20T14:03:51;13.63;;;5.20;;
21360;SDS011;10839;43.206;23.550;2022-11-20T14:08:59;8.05;;;5.72;;
21360;SDS011;10839;43.206;23.550;2022-11-20T14:11:26;13.25;;;7.15;;
21360;SDS011;10839;43.206;23.550;2022-11-20T14:16:32;8.75;;;5.85;;
21360;SDS011;10839;43.206;23.550;2022-11-20T14:21:53;11.30;;;7.35;;
21360;SDS011;10839;43.206;23.550;2022-11-20T14:24:31;20.77;;;12.68;;
21360;SDS011;10839;43.206;23.550;2022-11-20T14:26:57;50.20;;;28.90;;
21360;SDS011;10839;43.206;23.550;2022-11-20T14:29:34;54.72;;;32.75;;
21360;SDS011;10839;43.206;23.550;2022-11-20T14:32:03;13.90;;;9.70;;
21360;SDS011;10839;43.206;23.550;2022-11-20T14:34:30;12.98;;;9.38;;
21360;SDS011;10839;43.206;23.550;2022-11-20T14:37:03;20.17;;;13.50;;
21360;SDS011;10839;43.206;23.550;2022-11-20T14:39:32;19.50;;;12.83;;
21360;SDS011;10839;43.206;23.550;2022-11-20T14:42:15;18.83;;;12.98;;
21360;SDS011;10839;43.206;23.550;2022-11-20T14:44:44;34.35;;;23.88;;
21360;SDS011;10839;43.206;23.550;2022-11-20T14:47:12;34.50;;;20.65;;
21360;SDS011;10839;43.206;23.550;2022-11-20T14:49:40;32.50;;;19.20;;
21360;SDS011;10839;43.206;23.550;2022-11-20T14:54:53;43.00;;;26.25;;
21360;SDS011;10839;43.206;23.550;2022-11-20T15:00:04;32.05;;;19.85;;
21360;SDS011;10839;43.206;23.550;2022-11-20T15:02:45;29.10;;;17.65;;
21360;SDS011;10839;43.206;23.550;2022-11-20T15:05:12;36.50;;;17.77;;
21360;SDS011;10839;43.206;23.550;2022-11-20T15:07:41;25.92;;;15.07;;
21360;SDS011;10839;43.206;23.550;2022-11-20T15:10:12;32.00;;;17.88;;
21360;SDS011;10839;43.206;23.550;2022-11-20T15:12:39;37.10;;;20.10;;
21360;SDS011;10839;43.206;23.550;2022-11-20T15:15:12;37.47;;;23.20;;
21360;SDS011;10839;43.206;23.550;2022-11-20T15:17:43;45.10;;;24.48;;
21360;SDS011;10839;43.206;23.550;2022-11-20T15:20:11;38.22;;;22.77;;
21360;SDS011;10839;43.206;23.550;2022-11-20T15:22:40;38.40;;;22.70;;
21360;SDS011;10839;43.206;23.550;2022-11-20T15:25:16;32.65;;;18.58;;
21360;SDS011;10839;43.206;23.550;2022-11-20T15:27:44;25.73;;;13.35;;
21360;SDS011;10839;43.206;23.550;2022-11-20T15:30:16;21.88;;;11.18;;
21360;SDS011;10839;43.206;23.550;2022-11-20T15:32:45;18.95;;;11.38;;
21360;SDS011;10839;43.206;23.550;2022-11-20T15:35:12;15.02;;;9.43;;
21360;SDS011;10839;43.206;23.550;2022-11-20T15:37:39;13.82;;;9.05;;
21360;SDS011;10839;43.206;23.550;2022-11-20T15:40:06;11.30;;;7.22;;
21360;SDS011;10839;43.206;23.550;2022-11-20T15:42:33;5.55;;;3.95;;
21360;SDS011;10839;43.206;23.550;2022-11-20T15:45:00;5.15;;;3.45;;
21360;SDS011;10839;43.206;23.550;2022-11-20T15:47:27;13.15;;;5.22;;
21360;SDS011;10839;43.206;23.550;2022-11-20T15:49:56;8.55;;;4.55;;
21360;SDS011;10839;43.206;23.550;2022-11-20T15:52:22;3.88;;;2.55;;
21360;SDS011;10839;43.206;23.550;2022-11-20T15:54:48;4.60;;;2.70;;
21360;SDS011;10839;43.206;23.550;2022-11-20T15:57:14;2.92;;;1.75;;
21360;SDS011;10839;43.206;23.550;2022-11-20T15:59:40;4.28;;;2.90;;
21360;SDS011;10839;43.206;23.550;2022-11-20T16:02:13;8.27;;;3.35;;
21360;SDS011;10839;43.206;23.550;2022-11-20T16:04:41;6.65;;;4.60;;
21360;SDS011;10839;43.206;23.550;2022-11-20T16:07:07;9.10;;;5.65;;
21360;SDS011;10839;43.206;23.550;2022-11-20T16:09:33;14.30;;;7.25;;
21360;SDS011;10839;43.206;23.550;2022-11-20T16:11:59;10.15;;;6.25;;
21360;SDS011;10839;43.206;23.550;2022-11-20T16:14:26;9.57;;;6.05;;
21360;SDS011;10839;43.206;23.550;2022-11-20T16:17:11;11.60;;;6.95;;
21360;SDS011;10839;43.206;23.550;2022-11-20T16:19:37;11.23;;;7.20;;
21360;SDS011;10839;43.206;23.550;2022-11-20T16:22:03;14.63;;;8.85;;
21360;SDS011;10839;43.206;23.550;2022-11-20T16:24:29;20.35;;;10.70;;
21360;SDS011;10839;43.206;23.550;2022-11-20T16:26:56;15.10;;;10.15;;
21360;SDS011;10839;43.206;23.550;2022-11-20T16:29:22;20.38;;;11.57;;
21360;SDS011;10839;43.206;23.550;2022-11-20T16:31:48;25.02;;;14.80;;
21360;SDS011;10839;43.206;23.550;2022-11-20T16:34:15;21.50;;;12.50;;
21360;SDS011;10839;43.206;23.550;2022-11-20T16:36:42;13.63;;;7.68;;
21360;SDS011;10839;43.206;23.550;2022-11-20T16:39:10;12.98;;;6.38;;
21360;SDS011;10839;43.206;23.550;2022-11-20T16:41:37;9.90;;;5.18;;
21360;SDS011;10839;43.206;23.550;2022-11-20T16:44:08;9.50;;;7.22;;
21360;SDS011;10839;43.206;23.550;2022-11-20T16:46:36;12.27;;;6.82;;
21360;SDS011;10839;43.206;23.550;2022-11-20T16:49:03;11.57;;;6.80;;
21360;SDS011;10839;43.206;23.550;2022-11-20T16:51:35;10.40;;;6.97;;
21360;SDS011;10839;43.206;23.550;2022-11-20T16:54:02;10.10;;;5.47;;
21360;SDS011;10839;43.206;23.550;2022-11-20T16:56:30;11.70;;;7.15;;
21360;SDS011;10839;43.206;23.550;2022-11-20T16:58:57;9.85;;;5.78;;
21360;SDS011;10839;43.206;23.550;2022-11-20T17:01:24;13.75;;;7.03;;
21360;SDS011;10839;43.206;23.550;2022-11-20T17:04:03;13.02;;;7.43;;
21360;SDS011;10839;43.206;23.550;2022-11-20T17:06:31;12.35;;;8.05;;
21360;SDS011;10839;43.206;23.550;2022-11-20T17:08:59;13.63;;;8.98;;
21360;SDS011;10839;43.206;23.550;2022-11-20T17:11:25;18.40;;;11.82;;
21360;SDS011;10839;43.206;23.550;2022-11-20T17:13:53;25.25;;;16.92;;